Terminal Aerodrome Forecast
Issued by NWS

Home | Current Version | Previous Version | Text Only | Print | Product List | Glossary On
Versions: 1 2 3 4 5 6 7 8 9 10 11 12 13 14 15 16 17 18 19 20 21 22 23 24 25 26 27 28 29 30
000
FTUS44 KLIX 251725
TAFHUM
TAF
KHUM 251725Z 2518/2618 14010KT P6SM VCTS BKN030CB BKN090
     FM260000 15010KT P6SM VCSH SCT025 BKN130
     FM260600 15005KT P6SM SCT015 BKN045
     FM261500 16011KT P6SM VCSH BKN030=

USA.gov is the U.S. government's official web portal to all federal, state and local government web resources and services.